Map

Track Data

SID SEASON NUMBER BASIN SUBBASIN NAME ISO_TIME NATURE LAT LON WMO_WIND WMO_PRES WMO_AGENCY TRACK_TYPE DIST2LAND LANDFALL IFLAG USA_AGENCY USA_ATCF_ID USA_LAT USA_LON USA_RECORD USA_STATUS USA_WIND USA_PRES USA_SSHS USA_R34_NE USA_R34_SE USA_R34_SW USA_R34_NW USA_R50_NE USA_R50_SE USA_R50_SW USA_R50_NW USA_R64_NE USA_R64_SE USA_R64_SW USA_R64_NW USA_POCI USA_ROCI USA_RMW USA_EYE TOKYO_LAT TOKYO_LON TOKYO_GRADE TOKYO_WIND TOKYO_PRES TOKYO_R50_DIR TOKYO_R50_LONG TOKYO_R50_SHORT TOKYO_R30_DIR TOKYO_R30_LONG TOKYO_R30_SHORT TOKYO_LAND CMA_LAT CMA_LON CMA_CAT CMA_WIND CMA_PRES HKO_LAT HKO_LON HKO_CAT HKO_WIND HKO_PRES NEWDELHI_LAT NEWDELHI_LON NEWDELHI_GRADE NEWDELHI_WIND NEWDELHI_PRES NEWDELHI_CI NEWDELHI_DP NEWDELHI_POCI REUNION_LAT REUNION_LON REUNION_TYPE REUNION_WIND REUNION_PRES REUNION_TNUM REUNION_CI REUNION_RMW REUNION_R34_NE REUNION_R34_SE REUNION_R34_SW REUNION_R34_NW REUNION_R50_NE REUNION_R50_SE REUNION_R50_SW REUNION_R50_NW REUNION_R64_NE REUNION_R64_SE REUNION_R64_SW REUNION_R64_NW BOM_LAT BOM_LON BOM_TYPE BOM_WIND BOM_PRES BOM_TNUM BOM_CI BOM_RMW BOM_R34_NE BOM_R34_SE BOM_R34_SW BOM_R34_NW BOM_R50_NE BOM_R50_SE BOM_R50_SW BOM_R50_NW BOM_R64_NE BOM_R64_SE BOM_R64_SW BOM_R64_NW BOM_ROCI BOM_POCI BOM_EYE BOM_POS_METHOD BOM_PRES_METHOD NADI_LAT NADI_LON NADI_CAT NADI_WIND NADI_PRES WELLINGTON_LAT WELLINGTON_LON WELLINGTON_WIND WELLINGTON_PRES DS824_LAT DS824_LON DS824_STAGE DS824_WIND DS824_PRES TD9636_LAT TD9636_LON TD9636_STAGE TD9636_WIND TD9636_PRES TD9635_LAT TD9635_LON TD9635_WIND TD9635_PRES TD9635_ROCI NEUMANN_LAT NEUMANN_LON NEUMANN_CLASS NEUMANN_WIND NEUMANN_PRES MLC_LAT MLC_LON MLC_CLASS MLC_WIND MLC_PRES USA_GUST BOM_GUST BOM_GUST_PER REUNION_GUST REUNION_GUST_PER USA_SEAHGT USA_SEARAD_NE USA_SEARAD_SE USA_SEARAD_SW USA_SEARAD_NW STORM_SPEED STORM_DIR
1886239N17125 1886 27 WP MM NOT_NAMED 1886-08-26 16:00:00 NR 17.4000 124.800 main 248 206 __________O___ -1 17.4000 124.800 4 10 271
1886239N17125 1886 27 WP MM NOT_NAMED 1886-08-26 18:00:00 NR 17.4046 124.442 main 206 155 __________P___ -1 17.4046 124.442 4 10 271
1886239N17125 1886 27 WP MM NOT_NAMED 1886-08-26 21:00:00 NR 17.4092 123.890 main 155 96 __________P___ -1 17.4092 123.890 4 11 270
1886239N17125 1886 27 WP MM NOT_NAMED 1886-08-27 00:00:00 NR 17.4097 123.296 main 96 24 __________P___ -1 17.4097 123.296 4 12 270
1886239N17125 1886 27 WP MM NOT_NAMED 1886-08-27 03:00:00 NR 17.4038 122.638 main 24 11 __________P___ -1 17.4038 122.638 4 13 269
1886239N17125 1886 27 WP MM NOT_NAMED 1886-08-27 04:00:00 NR 17.4000 122.400 main 11 0 __________O___ -1 17.4000 122.400 4 14 269
1886239N17125 1886 27 WP MM NOT_NAMED 1886-08-27 06:00:00 NR 17.3894 121.893 main 0 0 __________P___ -1 17.3894 121.893 4 15 269
1886239N17125 1886 27 WP MM NOT_NAMED 1886-08-27 09:00:00 NR 17.3670 121.077 main 0 0 __________P___ -1 17.3670 121.077 4 16 268
1886239N17125 1886 27 WP MM NOT_NAMED 1886-08-27 12:00:00 NR 17.3393 120.225 main 24 24 __________P___ -1 17.3393 120.225 4 16 268
1886239N17125 1886 27 WP MM NOT_NAMED 1886-08-27 15:00:00 NR 17.3096 119.376 main 101 111 __________P___ -1 17.3096 119.376 4 16 268
1886239N17125 1886 27 WP MM NOT_NAMED 1886-08-27 16:00:00 NR 17.3000 119.100 main 131 131 __________O___ -1 17.3000 119.100 4 15 268
1886239N17125 1886 27 WP MM NOT_NAMED 1886-08-27 18:00:00 NR 17.2879 118.573 main 169 177 __________P___ -1 17.2879 118.573 4 15 269
1886239N17125 1886 27 WP MM NOT_NAMED 1886-08-27 21:00:00 NR 17.2706 117.800 main 240 240 __________P___ -1 17.2706 117.800 4 15 268
1886239N17125 1886 27 WP MM NOT_NAMED 1886-08-28 00:00:00 NR 17.2483 117.053 main 304 314 __________P___ -1 17.2483 117.053 4 14 268
1886239N17125 1886 27 WP MM NOT_NAMED 1886-08-28 03:00:00 NR 17.2148 116.333 main 386 386 __________P___ -1 17.2148 116.333 4 14 267
1886239N17125 1886 27 WP MM NOT_NAMED 1886-08-28 04:00:00 NR 17.2000 116.100 main 406 406 __________O___ -1 17.2000 116.100 4 13 265
1886239N17125 1886 27 WP MM NOT_NAMED 1886-08-28 06:00:00 NR 17.1605 115.646 main 457 457 __________P___ -1 17.1605 115.646 4 13 264
1886239N17125 1886 27 WP MM NOT_NAMED 1886-08-28 09:00:00 NR 17.0894 114.991 main 506 459 __________P___ -1 17.0894 114.991 4 12 263
1886239N17125 1886 27 WP MM NOT_NAMED 1886-08-28 12:00:00 NR 17.0095 114.353 main 459 399 __________P___ -1 17.0095 114.353 4 12 262
1886239N17125 1886 27 WP MM NOT_NAMED 1886-08-28 15:00:00 NR 16.9270 113.715 main 399 382 __________P___ -1 16.9270 113.715 4 12 262
1886239N17125 1886 27 WP MM NOT_NAMED 1886-08-28 16:00:00 NR 16.9000 113.500 main 382 347 __________O___ -1 16.9000 113.500 4 13 263
1886239N17125 1886 27 WP MM NOT_NAMED 1886-08-28 18:00:00 NR 16.8475 113.064 main 354 300 __________P___ -1 16.8475 113.064 4 13 263
1886239N17125 1886 27 WP MM NOT_NAMED 1886-08-28 21:00:00 NR 16.7719 112.395 main 300 262 __________P___ -1 16.7719 112.395 4 13 263
1886239N17125 1886 27 WP MM NOT_NAMED 1886-08-29 00:00:00 NR 16.6983 111.715 main 262 226 __________P___ -1 16.6983 111.715 4 13 264
1886239N17125 1886 27 WP MM NOT_NAMED 1886-08-29 03:00:00 NR 16.6248 111.029 main 226 213 __________P___ -1 16.6248 111.029 4 13 264
1886239N17125 1886 27 WP MM NOT_NAMED 1886-08-29 04:00:00 NR 16.6000 110.800 main 213 __________O___ -1 16.6000 110.800 7 13 264

Digital Typhoon Data and Search

About IBTrACS Database

This database is a web-friendly format of International Best Track Archive for Climate Stewardship (IBTrACS), a global best track data archive curated by NOAA dating back to 1842.

Updated: 2021-10-25